sensor_id;sensor_type;location;lat;lon;timestamp;P1;durP1;ratioP1;P2;durP2;ratioP2
7171;SDS011;3627;46.544;14.944;2022-07-09T00:01:59;2.90;;;2.60;;
7171;SDS011;3627;46.544;14.944;2022-07-09T00:04:25;3.63;;;2.92;;
7171;SDS011;3627;46.544;14.944;2022-07-09T00:06:51;3.03;;;2.80;;
7171;SDS011;3627;46.544;14.944;2022-07-09T00:09:19;5.30;;;2.90;;
7171;SDS011;3627;46.544;14.944;2022-07-09T00:11:45;6.90;;;3.08;;
7171;SDS011;3627;46.544;14.944;2022-07-09T00:14:12;4.38;;;2.88;;
7171;SDS011;3627;46.544;14.944;2022-07-09T00:16:38;5.35;;;2.90;;
7171;SDS011;3627;46.544;14.944;2022-07-09T00:19:05;3.15;;;2.80;;
7171;SDS011;3627;46.544;14.944;2022-07-09T00:21:31;3.40;;;2.75;;
7171;SDS011;3627;46.544;14.944;2022-07-09T00:23:57;3.47;;;2.90;;
7171;SDS011;3627;46.544;14.944;2022-07-09T00:26:25;4.55;;;3.03;;
7171;SDS011;3627;46.544;14.944;2022-07-09T00:28:51;2.80;;;2.60;;
7171;SDS011;3627;46.544;14.944;2022-07-09T00:31:18;6.05;;;2.78;;
7171;SDS011;3627;46.544;14.944;2022-07-09T00:33:44;3.67;;;2.50;;
7171;SDS011;3627;46.544;14.944;2022-07-09T00:36:10;7.13;;;3.08;;
7171;SDS011;3627;46.544;14.944;2022-07-09T00:38:37;3.15;;;2.28;;
7171;SDS011;3627;46.544;14.944;2022-07-09T00:41:03;3.28;;;2.55;;
7171;SDS011;3627;46.544;14.944;2022-07-09T00:43:31;3.30;;;3.00;;
7171;SDS011;3627;46.544;14.944;2022-07-09T00:45:57;3.17;;;2.83;;
7171;SDS011;3627;46.544;14.944;2022-07-09T00:48:24;3.42;;;2.65;;
7171;SDS011;3627;46.544;14.944;2022-07-09T00:50:50;3.25;;;2.95;;
7171;SDS011;3627;46.544;14.944;2022-07-09T00:53:17;4.40;;;2.85;;
7171;SDS011;3627;46.544;14.944;2022-07-09T00:55:45;4.65;;;3.30;;
7171;SDS011;3627;46.544;14.944;2022-07-09T00:58:13;5.18;;;3.30;;
7171;SDS011;3627;46.544;14.944;2022-07-09T01:00:43;3.28;;;3.03;;
7171;SDS011;3627;46.544;14.944;2022-07-09T01:03:09;6.35;;;3.10;;
7171;SDS011;3627;46.544;14.944;2022-07-09T01:05:36;3.95;;;3.38;;
7171;SDS011;3627;46.544;14.944;2022-07-09T01:08:03;4.88;;;3.67;;
7171;SDS011;3627;46.544;14.944;2022-07-09T01:10:30;2.95;;;2.75;;
7171;SDS011;3627;46.544;14.944;2022-07-09T01:12:56;3.72;;;3.17;;
7171;SDS011;3627;46.544;14.944;2022-07-09T01:15:23;3.40;;;3.13;;
7171;SDS011;3627;46.544;14.944;2022-07-09T01:17:51;4.30;;;3.42;;
7171;SDS011;3627;46.544;14.944;2022-07-09T01:20:21;4.50;;;3.30;;
7171;SDS011;3627;46.544;14.944;2022-07-09T01:22:47;3.30;;;2.80;;
7171;SDS011;3627;46.544;14.944;2022-07-09T01:25:14;3.63;;;3.10;;
7171;SDS011;3627;46.544;14.944;2022-07-09T01:27:42;2.85;;;2.65;;
7171;SDS011;3627;46.544;14.944;2022-07-09T01:30:08;5.63;;;3.08;;
7171;SDS011;3627;46.544;14.944;2022-07-09T01:32:35;3.25;;;2.95;;
7171;SDS011;3627;46.544;14.944;2022-07-09T01:35:01;7.25;;;3.15;;
7171;SDS011;3627;46.544;14.944;2022-07-09T01:37:29;3.47;;;3.17;;
7171;SDS011;3627;46.544;14.944;2022-07-09T01:39:56;3.75;;;3.45;;
7171;SDS011;3627;46.544;14.944;2022-07-09T01:42:22;4.72;;;3.22;;
7171;SDS011;3627;46.544;14.944;2022-07-09T01:44:48;4.50;;;2.70;;
7171;SDS011;3627;46.544;14.944;2022-07-09T01:47:15;3.15;;;2.92;;
7171;SDS011;3627;46.544;14.944;2022-07-09T01:49:41;6.93;;;3.22;;
7171;SDS011;3627;46.544;14.944;2022-07-09T01:52:07;3.38;;;3.08;;
7171;SDS011;3627;46.544;14.944;2022-07-09T01:54:35;3.28;;;2.97;;
7171;SDS011;3627;46.544;14.944;2022-07-09T01:57:02;3.50;;;3.20;;
7171;SDS011;3627;46.544;14.944;2022-07-09T01:59:28;3.75;;;2.92;;
7171;SDS011;3627;46.544;14.944;2022-07-09T02:01:54;3.45;;;3.20;;
7171;SDS011;3627;46.544;14.944;2022-07-09T02:04:21;4.03;;;3.17;;
7171;SDS011;3627;46.544;14.944;2022-07-09T02:06:48;3.50;;;3.20;;
7171;SDS011;3627;46.544;14.944;2022-07-09T02:09:14;4.38;;;3.15;;
7171;SDS011;3627;46.544;14.944;2022-07-09T02:11:42;3.60;;;3.30;;
7171;SDS011;3627;46.544;14.944;2022-07-09T02:14:08;3.05;;;2.80;;
7171;SDS011;3627;46.544;14.944;2022-07-09T02:16:35;3.47;;;2.90;;
7171;SDS011;3627;46.544;14.944;2022-07-09T02:19:01;3.35;;;2.80;;
7171;SDS011;3627;46.544;14.944;2022-07-09T02:21:28;4.85;;;3.17;;
7171;SDS011;3627;46.544;14.944;2022-07-09T02:23:54;7.38;;;3.40;;
7171;SDS011;3627;46.544;14.944;2022-07-09T02:26:23;3.50;;;3.20;;
7171;SDS011;3627;46.544;14.944;2022-07-09T02:28:51;4.03;;;3.15;;
7171;SDS011;3627;46.544;14.944;2022-07-09T02:31:18;3.75;;;2.85;;
7171;SDS011;3627;46.544;14.944;2022-07-09T02:33:44;4.45;;;3.20;;
7171;SDS011;3627;46.544;14.944;2022-07-09T02:36:10;3.72;;;3.42;;
7171;SDS011;3627;46.544;14.944;2022-07-09T02:38:37;3.92;;;3.03;;
7171;SDS011;3627;46.544;14.944;2022-07-09T02:41:03;5.32;;;2.97;;
7171;SDS011;3627;46.544;14.944;2022-07-09T02:43:30;3.42;;;3.13;;
7171;SDS011;3627;46.544;14.944;2022-07-09T02:45:59;3.33;;;3.03;;
7171;SDS011;3627;46.544;14.944;2022-07-09T02:48:26;3.90;;;3.20;;
7171;SDS011;3627;46.544;14.944;2022-07-09T02:50:52;3.65;;;3.20;;
7171;SDS011;3627;46.544;14.944;2022-07-09T02:53:19;4.05;;;3.35;;
7171;SDS011;3627;46.544;14.944;2022-07-09T02:55:45;5.50;;;3.80;;
7171;SDS011;3627;46.544;14.944;2022-07-09T02:58:12;3.58;;;3.28;;
7171;SDS011;3627;46.544;14.944;2022-07-09T03:00:39;4.97;;;3.50;;
7171;SDS011;3627;46.544;14.944;2022-07-09T03:03:07;5.50;;;3.78;;
7171;SDS011;3627;46.544;14.944;2022-07-09T03:05:34;3.63;;;3.33;;
7171;SDS011;3627;46.544;14.944;2022-07-09T03:08:01;3.90;;;3.10;;
7171;SDS011;3627;46.544;14.944;2022-07-09T03:10:27;4.72;;;3.20;;
7171;SDS011;3627;46.544;14.944;2022-07-09T03:12:54;4.10;;;3.70;;
7171;SDS011;3627;46.544;14.944;2022-07-09T03:15:20;5.38;;;3.58;;
7171;SDS011;3627;46.544;14.944;2022-07-09T03:17:47;5.93;;;3.38;;
7171;SDS011;3627;46.544;14.944;2022-07-09T03:20:15;3.65;;;3.35;;
7171;SDS011;3627;46.544;14.944;2022-07-09T03:22:42;4.55;;;3.70;;
7171;SDS011;3627;46.544;14.944;2022-07-09T03:25:08;4.30;;;3.42;;
7171;SDS011;3627;46.544;14.944;2022-07-09T03:27:35;7.57;;;3.58;;
7171;SDS011;3627;46.544;14.944;2022-07-09T03:30:02;11.27;;;3.83;;
7171;SDS011;3627;46.544;14.944;2022-07-09T03:32:28;4.15;;;3.30;;
7171;SDS011;3627;46.544;14.944;2022-07-09T03:34:55;3.70;;;3.40;;
7171;SDS011;3627;46.544;14.944;2022-07-09T03:37:22;5.93;;;4.18;;
7171;SDS011;3627;46.544;14.944;2022-07-09T03:39:49;3.70;;;3.40;;
7171;SDS011;3627;46.544;14.944;2022-07-09T03:42:15;4.00;;;3.20;;
7171;SDS011;3627;46.544;14.944;2022-07-09T03:44:42;6.00;;;3.75;;
7171;SDS011;3627;46.544;14.944;2022-07-09T03:47:08;5.60;;;3.35;;
7171;SDS011;3627;46.544;14.944;2022-07-09T03:49:35;5.47;;;3.97;;
7171;SDS011;3627;46.544;14.944;2022-07-09T03:52:01;5.30;;;3.72;;
7171;SDS011;3627;46.544;14.944;2022-07-09T03:54:29;4.38;;;3.17;;
7171;SDS011;3627;46.544;14.944;2022-07-09T03:56:55;3.65;;;3.25;;
7171;SDS011;3627;46.544;14.944;2022-07-09T03:59:22;5.47;;;3.63;;
7171;SDS011;3627;46.544;14.944;2022-07-09T04:01:48;5.63;;;3.15;;
7171;SDS011;3627;46.544;14.944;2022-07-09T04:04:14;3.88;;;3.42;;
7171;SDS011;3627;46.544;14.944;2022-07-09T04:06:41;3.55;;;2.80;;
7171;SDS011;3627;46.544;14.944;2022-07-09T04:09:07;4.57;;;2.83;;
7171;SDS011;3627;46.544;14.944;2022-07-09T04:11:35;4.18;;;2.75;;
7171;SDS011;3627;46.544;14.944;2022-07-09T04:14:02;6.15;;;2.40;;
7171;SDS011;3627;46.544;14.944;2022-07-09T04:16:28;2.72;;;2.17;;
7171;SDS011;3627;46.544;14.944;2022-07-09T04:18:55;2.70;;;2.38;;
7171;SDS011;3627;46.544;14.944;2022-07-09T04:21:21;4.53;;;2.75;;
7171;SDS011;3627;46.544;14.944;2022-07-09T04:23:48;3.60;;;2.70;;
7171;SDS011;3627;46.544;14.944;2022-07-09T04:26:14;4.15;;;2.83;;
7171;SDS011;3627;46.544;14.944;2022-07-09T04:28:42;3.97;;;2.88;;
7171;SDS011;3627;46.544;14.944;2022-07-09T04:31:08;3.05;;;2.65;;
7171;SDS011;3627;46.544;14.944;2022-07-09T04:33:34;3.30;;;2.50;;
7171;SDS011;3627;46.544;14.944;2022-07-09T04:36:01;2.88;;;2.50;;
7171;SDS011;3627;46.544;14.944;2022-07-09T04:38:27;4.18;;;2.50;;
7171;SDS011;3627;46.544;14.944;2022-07-09T04:40:54;4.10;;;2.30;;
7171;SDS011;3627;46.544;14.944;2022-07-09T04:43:21;2.80;;;2.38;;
7171;SDS011;3627;46.544;14.944;2022-07-09T04:45:48;3.38;;;2.28;;
7171;SDS011;3627;46.544;14.944;2022-07-09T04:48:15;2.28;;;2.13;;
7171;SDS011;3627;46.544;14.944;2022-07-09T04:50:41;5.70;;;3.08;;
7171;SDS011;3627;46.544;14.944;2022-07-09T04:53:07;4.28;;;1.98;;
7171;SDS011;3627;46.544;14.944;2022-07-09T04:55:34;2.30;;;2.10;;
7171;SDS011;3627;46.544;14.944;2022-07-09T04:58:00;3.63;;;1.77;;
7171;SDS011;3627;46.544;14.944;2022-07-09T05:00:26;3.80;;;2.10;;
7171;SDS011;3627;46.544;14.944;2022-07-09T05:02:54;2.60;;;1.77;;
7171;SDS011;3627;46.544;14.944;2022-07-09T05:05:21;2.70;;;1.95;;
7171;SDS011;3627;46.544;14.944;2022-07-09T05:07:48;3.45;;;2.50;;
7171;SDS011;3627;46.544;14.944;2022-07-09T05:10:14;6.22;;;2.10;;
7171;SDS011;3627;46.544;14.944;2022-07-09T05:12:41;3.33;;;1.85;;
7171;SDS011;3627;46.544;14.944;2022-07-09T05:15:08;3.60;;;1.98;;
7171;SDS011;3627;46.544;14.944;2022-07-09T05:17:34;2.10;;;1.80;;
7171;SDS011;3627;46.544;14.944;2022-07-09T05:20:03;4.40;;;2.08;;
7171;SDS011;3627;46.544;14.944;2022-07-09T05:22:30;2.22;;;1.70;;
7171;SDS011;3627;46.544;14.944;2022-07-09T05:24:56;5.43;;;1.98;;
7171;SDS011;3627;46.544;14.944;2022-07-09T05:27:22;3.45;;;1.92;;
7171;SDS011;3627;46.544;14.944;2022-07-09T05:29:49;2.60;;;1.92;;
7171;SDS011;3627;46.544;14.944;2022-07-09T05:32:15;2.33;;;1.80;;
7171;SDS011;3627;46.544;14.944;2022-07-09T05:34:42;5.53;;;1.90;;
7171;SDS011;3627;46.544;14.944;2022-07-09T05:37:09;4.03;;;2.20;;
7171;SDS011;3627;46.544;14.944;2022-07-09T05:39:36;3.00;;;1.63;;
7171;SDS011;3627;46.544;14.944;2022-07-09T05:42:02;2.85;;;1.85;;
7171;SDS011;3627;46.544;14.944;2022-07-09T05:44:29;2.80;;;1.48;;
7171;SDS011;3627;46.544;14.944;2022-07-09T05:46:56;1.92;;;1.30;;
7171;SDS011;3627;46.544;14.944;2022-07-09T05:49:22;3.25;;;1.42;;
7171;SDS011;3627;46.544;14.944;2022-07-09T05:51:49;2.67;;;1.30;;
7171;SDS011;3627;46.544;14.944;2022-07-09T05:54:17;3.28;;;1.63;;
7171;SDS011;3627;46.544;14.944;2022-07-09T05:56:43;2.65;;;1.52;;
7171;SDS011;3627;46.544;14.944;2022-07-09T05:59:10;2.45;;;1.10;;
7171;SDS011;3627;46.544;14.944;2022-07-09T06:01:37;1.48;;;1.10;;
7171;SDS011;3627;46.544;14.944;2022-07-09T06:04:06;4.40;;;1.45;;
7171;SDS011;3627;46.544;14.944;2022-07-09T06:06:33;2.15;;;1.60;;
7171;SDS011;3627;46.544;14.944;2022-07-09T06:08:59;2.60;;;1.50;;
7171;SDS011;3627;46.544;14.944;2022-07-09T06:11:27;3.45;;;1.73;;
7171;SDS011;3627;46.544;14.944;2022-07-09T06:13:54;2.88;;;1.38;;
7171;SDS011;3627;46.544;14.944;2022-07-09T06:16:20;2.45;;;1.50;;
7171;SDS011;3627;46.544;14.944;2022-07-09T06:18:46;3.67;;;1.58;;
7171;SDS011;3627;46.544;14.944;2022-07-09T06:21:13;3.80;;;1.50;;
7171;SDS011;3627;46.544;14.944;2022-07-09T06:23:39;2.67;;;1.50;;
7171;SDS011;3627;46.544;14.944;2022-07-09T06:26:06;2.97;;;1.50;;
7171;SDS011;3627;46.544;14.944;2022-07-09T06:28:36;2.42;;;1.45;;
7171;SDS011;3627;46.544;14.944;2022-07-09T06:31:03;2.50;;;1.45;;
7171;SDS011;3627;46.544;14.944;2022-07-09T06:33:29;1.75;;;1.25;;
7171;SDS011;3627;46.544;14.944;2022-07-09T06:35:56;1.85;;;1.17;;
7171;SDS011;3627;46.544;14.944;2022-07-09T06:38:22;3.70;;;1.40;;
7171;SDS011;3627;46.544;14.944;2022-07-09T06:40:48;1.75;;;1.25;;
7171;SDS011;3627;46.544;14.944;2022-07-09T06:43:15;2.17;;;1.30;;
7171;SDS011;3627;46.544;14.944;2022-07-09T06:45:42;1.58;;;1.35;;
7171;SDS011;3627;46.544;14.944;2022-07-09T06:48:09;2.00;;;1.30;;
7171;SDS011;3627;46.544;14.944;2022-07-09T06:50:35;3.47;;;1.48;;
7171;SDS011;3627;46.544;14.944;2022-07-09T06:53:02;1.75;;;1.33;;
7171;SDS011;3627;46.544;14.944;2022-07-09T06:55:28;2.30;;;1.38;;
7171;SDS011;3627;46.544;14.944;2022-07-09T06:57:55;2.20;;;1.08;;
7171;SDS011;3627;46.544;14.944;2022-07-09T07:00:22;1.63;;;1.20;;
7171;SDS011;3627;46.544;14.944;2022-07-09T07:02:51;1.77;;;1.50;;
7171;SDS011;3627;46.544;14.944;2022-07-09T07:05:17;1.40;;;1.08;;
7171;SDS011;3627;46.544;14.944;2022-07-09T07:07:43;2.05;;;1.20;;
7171;SDS011;3627;46.544;14.944;2022-07-09T07:10:10;1.35;;;1.02;;
7171;SDS011;3627;46.544;14.944;2022-07-09T07:12:36;1.48;;;1.20;;
7171;SDS011;3627;46.544;14.944;2022-07-09T07:15:03;1.30;;;1.02;;
7171;SDS011;3627;46.544;14.944;2022-07-09T07:17:29;2.60;;;1.13;;
7171;SDS011;3627;46.544;14.944;2022-07-09T07:19:58;1.92;;;1.15;;
7171;SDS011;3627;46.544;14.944;2022-07-09T07:22:24;1.95;;;1.00;;
7171;SDS011;3627;46.544;14.944;2022-07-09T07:24:50;3.60;;;1.23;;
7171;SDS011;3627;46.544;14.944;2022-07-09T07:27:17;1.10;;;0.93;;
7171;SDS011;3627;46.544;14.944;2022-07-09T07:29:43;1.00;;;1.00;;
7171;SDS011;3627;46.544;14.944;2022-07-09T07:32:10;1.08;;;1.00;;
7171;SDS011;3627;46.544;14.944;2022-07-09T07:34:36;1.55;;;0.95;;
7171;SDS011;3627;46.544;14.944;2022-07-09T07:37:04;2.10;;;0.95;;
7171;SDS011;3627;46.544;14.944;2022-07-09T07:39:30;1.77;;;1.20;;
7171;SDS011;3627;46.544;14.944;2022-07-09T07:41:57;1.73;;;1.20;;
7171;SDS011;3627;46.544;14.944;2022-07-09T07:44:23;1.58;;;1.10;;
7171;SDS011;3627;46.544;14.944;2022-07-09T07:46:49;1.73;;;1.10;;
7171;SDS011;3627;46.544;14.944;2022-07-09T07:49:16;2.05;;;1.10;;
7171;SDS011;3627;46.544;14.944;2022-07-09T07:51:43;1.83;;;1.30;;
7171;SDS011;3627;46.544;14.944;2022-07-09T07:54:11;2.17;;;1.27;;
7171;SDS011;3627;46.544;14.944;2022-07-09T07:56:38;1.90;;;0.98;;
7171;SDS011;3627;46.544;14.944;2022-07-09T07:59:04;2.67;;;1.10;;
7171;SDS011;3627;46.544;14.944;2022-07-09T08:01:31;1.90;;;1.17;;
7171;SDS011;3627;46.544;14.944;2022-07-09T08:03:57;2.20;;;1.27;;
7171;SDS011;3627;46.544;14.944;2022-07-09T08:06:23;1.02;;;0.88;;
7171;SDS011;3627;46.544;14.944;2022-07-09T08:08:50;1.95;;;1.02;;
7171;SDS011;3627;46.544;14.944;2022-07-09T08:11:18;0.95;;;0.85;;
7171;SDS011;3627;46.544;14.944;2022-07-09T08:13:44;1.63;;;1.00;;
7171;SDS011;3627;46.544;14.944;2022-07-09T08:16:11;1.55;;;0.90;;
7171;SDS011;3627;46.544;14.944;2022-07-09T08:18:37;1.17;;;0.90;;
7171;SDS011;3627;46.544;14.944;2022-07-09T08:21:04;4.28;;;1.20;;
7171;SDS011;3627;46.544;14.944;2022-07-09T08:23:30;0.93;;;0.77;;
7171;SDS011;3627;46.544;14.944;2022-07-09T08:25:56;1.30;;;0.90;;
7171;SDS011;3627;46.544;14.944;2022-07-09T08:28:24;1.63;;;1.20;;
7171;SDS011;3627;46.544;14.944;2022-07-09T08:30:51;0.98;;;0.82;;
7171;SDS011;3627;46.544;14.944;2022-07-09T08:33:17;1.15;;;1.05;;
7171;SDS011;3627;46.544;14.944;2022-07-09T08:35:44;2.70;;;1.10;;
7171;SDS011;3627;46.544;14.944;2022-07-09T08:38:11;1.95;;;1.10;;
7171;SDS011;3627;46.544;14.944;2022-07-09T08:40:37;1.95;;;0.98;;
7171;SDS011;3627;46.544;14.944;2022-07-09T08:43:03;1.65;;;1.10;;
7171;SDS011;3627;46.544;14.944;2022-07-09T08:45:32;1.88;;;1.02;;
7171;SDS011;3627;46.544;14.944;2022-07-09T08:48:00;1.48;;;1.05;;
7171;SDS011;3627;46.544;14.944;2022-07-09T08:50:27;1.33;;;0.88;;
7171;SDS011;3627;46.544;14.944;2022-07-09T08:52:53;1.73;;;1.30;;
7171;SDS011;3627;46.544;14.944;2022-07-09T08:55:20;3.67;;;1.30;;
7171;SDS011;3627;46.544;14.944;2022-07-09T08:57:47;1.58;;;1.20;;
7171;SDS011;3627;46.544;14.944;2022-07-09T09:00:13;1.50;;;1.17;;
7171;SDS011;3627;46.544;14.944;2022-07-09T09:02:41;2.53;;;1.25;;
7171;SDS011;3627;46.544;14.944;2022-07-09T09:05:08;1.05;;;0.95;;
7171;SDS011;3627;46.544;14.944;2022-07-09T09:07:35;1.08;;;0.77;;
7171;SDS011;3627;46.544;14.944;2022-07-09T09:10:02;2.70;;;1.15;;
7171;SDS011;3627;46.544;14.944;2022-07-09T09:12:28;1.85;;;1.13;;
7171;SDS011;3627;46.544;14.944;2022-07-09T09:14:55;2.75;;;1.10;;
7171;SDS011;3627;46.544;14.944;2022-07-09T09:17:21;1.35;;;0.95;;
7171;SDS011;3627;46.544;14.944;2022-07-09T09:19:49;2.53;;;1.30;;
7171;SDS011;3627;46.544;14.944;2022-07-09T09:22:16;1.38;;;1.10;;
7171;SDS011;3627;46.544;14.944;2022-07-09T09:24:42;1.63;;;1.10;;
7171;SDS011;3627;46.544;14.944;2022-07-09T09:27:09;1.85;;;0.95;;
7171;SDS011;3627;46.544;14.944;2022-07-09T09:29:35;2.08;;;1.15;;
7171;SDS011;3627;46.544;14.944;2022-07-09T09:32:08;1.90;;;1.10;;
7171;SDS011;3627;46.544;14.944;2022-07-09T09:34:35;1.73;;;0.90;;
7171;SDS011;3627;46.544;14.944;2022-07-09T09:37:03;1.42;;;0.98;;
7171;SDS011;3627;46.544;14.944;2022-07-09T09:39:29;2.30;;;1.30;;
7171;SDS011;3627;46.544;14.944;2022-07-09T09:41:56;2.67;;;1.60;;
7171;SDS011;3627;46.544;14.944;2022-07-09T09:44:24;1.48;;;1.20;;
7171;SDS011;3627;46.544;14.944;2022-07-09T09:46:51;1.85;;;1.20;;
7171;SDS011;3627;46.544;14.944;2022-07-09T09:49:18;1.75;;;1.00;;
7171;SDS011;3627;46.544;14.944;2022-07-09T09:51:49;1.02;;;0.95;;
7171;SDS011;3627;46.544;14.944;2022-07-09T09:54:18;1.33;;;1.15;;
7171;SDS011;3627;46.544;14.944;2022-07-09T09:56:45;1.70;;;1.33;;
7171;SDS011;3627;46.544;14.944;2022-07-09T09:59:11;2.63;;;1.40;;
7171;SDS011;3627;46.544;14.944;2022-07-09T10:01:38;2.20;;;1.13;;
7171;SDS011;3627;46.544;14.944;2022-07-09T10:04:05;2.55;;;1.30;;
7171;SDS011;3627;46.544;14.944;2022-07-09T10:06:32;1.45;;;1.23;;
7171;SDS011;3627;46.544;14.944;2022-07-09T10:09:00;3.13;;;1.42;;
7171;SDS011;3627;46.544;14.944;2022-07-09T10:11:37;2.85;;;1.52;;
7171;SDS011;3627;46.544;14.944;2022-07-09T10:14:03;1.80;;;1.40;;
7171;SDS011;3627;46.544;14.944;2022-07-09T10:16:33;2.80;;;1.30;;
7171;SDS011;3627;46.544;14.944;2022-07-09T10:19:00;2.45;;;1.48;;
7171;SDS011;3627;46.544;14.944;2022-07-09T10:21:33;1.50;;;1.40;;
7171;SDS011;3627;46.544;14.944;2022-07-09T10:23:59;2.13;;;1.50;;
7171;SDS011;3627;46.544;14.944;2022-07-09T10:26:35;1.58;;;1.42;;
7171;SDS011;3627;46.544;14.944;2022-07-09T10:29:03;2.05;;;1.50;;
7171;SDS011;3627;46.544;14.944;2022-07-09T10:31:43;3.25;;;1.63;;
7171;SDS011;3627;46.544;14.944;2022-07-09T10:34:09;1.73;;;1.42;;
7171;SDS011;3627;46.544;14.944;2022-07-09T10:36:55;3.10;;;1.77;;
7171;SDS011;3627;46.544;14.944;2022-07-09T10:39:21;3.03;;;1.42;;
7171;SDS011;3627;46.544;14.944;2022-07-09T10:41:59;2.08;;;1.80;;
7171;SDS011;3627;46.544;14.944;2022-07-09T10:44:25;1.60;;;1.50;;
7171;SDS011;3627;46.544;14.944;2022-07-09T10:46:55;1.92;;;1.63;;
7171;SDS011;3627;46.544;14.944;2022-07-09T10:49:21;4.22;;;1.60;;
7171;SDS011;3627;46.544;14.944;2022-07-09T10:51:48;1.98;;;1.48;;
7171;SDS011;3627;46.544;14.944;2022-07-09T10:54:15;1.60;;;1.40;;
7171;SDS011;3627;46.544;14.944;2022-07-09T10:56:41;2.50;;;1.58;;
7171;SDS011;3627;46.544;14.944;2022-07-09T10:59:09;2.13;;;1.70;;
7171;SDS011;3627;46.544;14.944;2022-07-09T11:01:35;2.22;;;1.70;;
7171;SDS011;3627;46.544;14.944;2022-07-09T11:04:02;3.15;;;1.60;;
7171;SDS011;3627;46.544;14.944;2022-07-09T11:06:29;2.03;;;1.50;;
7171;SDS011;3627;46.544;14.944;2022-07-09T11:08:55;2.70;;;1.83;;
7171;SDS011;3627;46.544;14.944;2022-07-09T11:11:21;2.45;;;1.90;;
7171;SDS011;3627;46.544;14.944;2022-07-09T11:13:49;3.28;;;1.50;;
7171;SDS011;3627;46.544;14.944;2022-07-09T11:16:22;1.42;;;1.33;;
7171;SDS011;3627;46.544;14.944;2022-07-09T11:18:48;1.85;;;1.50;;
7171;SDS011;3627;46.544;14.944;2022-07-09T11:21:20;2.15;;;1.42;;
7171;SDS011;3627;46.544;14.944;2022-07-09T11:23:47;1.55;;;1.45;;
7171;SDS011;3627;46.544;14.944;2022-07-09T11:26:14;1.83;;;1.70;;
7171;SDS011;3627;46.544;14.944;2022-07-09T11:28:40;2.10;;;1.60;;
7171;SDS011;3627;46.544;14.944;2022-07-09T11:31:08;2.80;;;1.73;;
7171;SDS011;3627;46.544;14.944;2022-07-09T11:33:36;1.60;;;1.50;;
7171;SDS011;3627;46.544;14.944;2022-07-09T11:36:16;2.03;;;1.83;;
7171;SDS011;3627;46.544;14.944;2022-07-09T11:38:47;1.65;;;1.50;;
7171;SDS011;3627;46.544;14.944;2022-07-09T11:41:13;1.83;;;1.70;;
7171;SDS011;3627;46.544;14.944;2022-07-09T11:43:42;1.63;;;1.52;;
7171;SDS011;3627;46.544;14.944;2022-07-09T11:46:11;2.85;;;1.80;;
7171;SDS011;3627;46.544;14.944;2022-07-09T11:48:49;3.45;;;1.63;;
7171;SDS011;3627;46.544;14.944;2022-07-09T11:51:25;3.22;;;1.60;;
7171;SDS011;3627;46.544;14.944;2022-07-09T11:53:51;1.77;;;1.58;;
7171;SDS011;3627;46.544;14.944;2022-07-09T11:56:18;2.38;;;1.40;;
7171;SDS011;3627;46.544;14.944;2022-07-09T11:58:48;3.50;;;1.55;;
7171;SDS011;3627;46.544;14.944;2022-07-09T12:01:14;1.98;;;1.63;;
7171;SDS011;3627;46.544;14.944;2022-07-09T12:03:45;3.17;;;1.48;;
7171;SDS011;3627;46.544;14.944;2022-07-09T12:06:14;1.55;;;1.30;;
7171;SDS011;3627;46.544;14.944;2022-07-09T12:08:40;1.58;;;1.33;;
7171;SDS011;3627;46.544;14.944;2022-07-09T12:11:07;2.55;;;1.65;;
7171;SDS011;3627;46.544;14.944;2022-07-09T12:13:33;2.30;;;1.55;;
7171;SDS011;3627;46.544;14.944;2022-07-09T12:15:59;2.22;;;1.60;;
7171;SDS011;3627;46.544;14.944;2022-07-09T12:18:26;2.92;;;1.40;;
7171;SDS011;3627;46.544;14.944;2022-07-09T12:20:53;1.77;;;1.42;;
7171;SDS011;3627;46.544;14.944;2022-07-09T12:23:21;1.90;;;1.55;;
7171;SDS011;3627;46.544;14.944;2022-07-09T12:25:47;2.90;;;1.42;;
7171;SDS011;3627;46.544;14.944;2022-07-09T12:28:14;3.47;;;1.90;;
7171;SDS011;3627;46.544;14.944;2022-07-09T12:30:40;2.05;;;1.40;;
7171;SDS011;3627;46.544;14.944;2022-07-09T12:33:06;1.88;;;1.73;;
7171;SDS011;3627;46.544;14.944;2022-07-09T12:35:33;2.40;;;1.88;;
7171;SDS011;3627;46.544;14.944;2022-07-09T12:37:59;1.75;;;1.23;;
7171;SDS011;3627;46.544;14.944;2022-07-09T12:40:27;1.60;;;1.38;;
7171;SDS011;3627;46.544;14.944;2022-07-09T12:42:54;1.58;;;1.30;;
7171;SDS011;3627;46.544;14.944;2022-07-09T12:45:20;1.35;;;1.25;;
7171;SDS011;3627;46.544;14.944;2022-07-09T12:47:47;1.23;;;1.13;;
7171;SDS011;3627;46.544;14.944;2022-07-09T12:50:13;2.08;;;1.45;;
7171;SDS011;3627;46.544;14.944;2022-07-09T12:52:40;1.63;;;1.20;;
7171;SDS011;3627;46.544;14.944;2022-07-09T12:55:06;1.30;;;1.20;;
7171;SDS011;3627;46.544;14.944;2022-07-09T12:57:36;1.55;;;1.45;;
7171;SDS011;3627;46.544;14.944;2022-07-09T13:00:03;2.65;;;1.40;;
7171;SDS011;3627;46.544;14.944;2022-07-09T13:02:30;1.45;;;1.30;;
7171;SDS011;3627;46.544;14.944;2022-07-09T13:04:56;2.30;;;1.50;;
7171;SDS011;3627;46.544;14.944;2022-07-09T13:07:23;1.88;;;1.40;;
7171;SDS011;3627;46.544;14.944;2022-07-09T13:09:49;1.65;;;1.55;;
7171;SDS011;3627;46.544;14.944;2022-07-09T13:12:17;1.98;;;1.40;;
7171;SDS011;3627;46.544;14.944;2022-07-09T13:14:45;1.35;;;1.20;;
7171;SDS011;3627;46.544;14.944;2022-07-09T13:17:11;3.83;;;1.98;;
7171;SDS011;3627;46.544;14.944;2022-07-09T13:19:37;2.42;;;1.60;;
7171;SDS011;3627;46.544;14.944;2022-07-09T13:22:04;2.20;;;1.50;;
7171;SDS011;3627;46.544;14.944;2022-07-09T13:24:33;1.30;;;1.20;;
7171;SDS011;3627;46.544;14.944;2022-07-09T13:27:00;2.85;;;1.83;;
7171;SDS011;3627;46.544;14.944;2022-07-09T13:29:27;2.40;;;1.70;;
7171;SDS011;3627;46.544;14.944;2022-07-09T13:31:55;1.60;;;1.50;;
7171;SDS011;3627;46.544;14.944;2022-07-09T13:34:22;2.15;;;1.95;;
7171;SDS011;3627;46.544;14.944;2022-07-09T13:36:48;3.85;;;1.45;;
7171;SDS011;3627;46.544;14.944;2022-07-09T13:39:14;2.15;;;1.50;;
7171;SDS011;3627;46.544;14.944;2022-07-09T13:41:41;2.15;;;1.50;;
7171;SDS011;3627;46.544;14.944;2022-07-09T13:44:07;3.05;;;1.30;;
7171;SDS011;3627;46.544;14.944;2022-07-09T13:46:33;8.10;;;1.70;;
7171;SDS011;3627;46.544;14.944;2022-07-09T13:49:01;2.42;;;1.42;;
7171;SDS011;3627;46.544;14.944;2022-07-09T13:51:28;2.28;;;1.40;;
7171;SDS011;3627;46.544;14.944;2022-07-09T13:53:54;1.80;;;1.50;;
7171;SDS011;3627;46.544;14.944;2022-07-09T13:56:20;1.73;;;1.40;;
7171;SDS011;3627;46.544;14.944;2022-07-09T13:58:47;2.38;;;1.50;;
7171;SDS011;3627;46.544;14.944;2022-07-09T14:01:14;2.78;;;1.60;;
7171;SDS011;3627;46.544;14.944;2022-07-09T14:03:40;2.90;;;1.40;;
7171;SDS011;3627;46.544;14.944;2022-07-09T14:06:09;1.40;;;1.30;;
7171;SDS011;3627;46.544;14.944;2022-07-09T14:08:36;1.83;;;1.30;;
7171;SDS011;3627;46.544;14.944;2022-07-09T14:11:03;2.25;;;1.40;;
7171;SDS011;3627;46.544;14.944;2022-07-09T14:13:29;2.03;;;1.33;;
7171;SDS011;3627;46.544;14.944;2022-07-09T14:15:56;2.03;;;1.42;;
7171;SDS011;3627;46.544;14.944;2022-07-09T14:18:24;2.15;;;1.55;;
7171;SDS011;3627;46.544;14.944;2022-07-09T14:20:50;1.90;;;1.60;;
7171;SDS011;3627;46.544;14.944;2022-07-09T14:23:18;2.88;;;1.25;;
7171;SDS011;3627;46.544;14.944;2022-07-09T14:25:44;1.95;;;1.50;;
7171;SDS011;3627;46.544;14.944;2022-07-09T14:28:11;1.88;;;1.30;;
7171;SDS011;3627;46.544;14.944;2022-07-09T14:30:37;2.20;;;1.55;;
7171;SDS011;3627;46.544;14.944;2022-07-09T14:33:04;1.50;;;1.40;;
7171;SDS011;3627;46.544;14.944;2022-07-09T14:35:30;1.52;;;1.42;;
7171;SDS011;3627;46.544;14.944;2022-07-09T14:37:58;2.33;;;1.25;;
7171;SDS011;3627;46.544;14.944;2022-07-09T14:40:25;2.15;;;1.50;;
7171;SDS011;3627;46.544;14.944;2022-07-09T14:42:52;2.63;;;1.50;;
7171;SDS011;3627;46.544;14.944;2022-07-09T14:45:18;1.83;;;1.60;;
7171;SDS011;3627;46.544;14.944;2022-07-09T14:47:45;1.88;;;1.40;;
7171;SDS011;3627;46.544;14.944;2022-07-09T14:50:11;2.33;;;1.60;;
7171;SDS011;3627;46.544;14.944;2022-07-09T14:52:37;1.45;;;1.35;;
7171;SDS011;3627;46.544;14.944;2022-07-09T14:55:04;2.58;;;1.30;;
7171;SDS011;3627;46.544;14.944;2022-07-09T14:57:32;1.60;;;1.48;;
7171;SDS011;3627;46.544;14.944;2022-07-09T14:59:59;2.40;;;1.50;;